Terminal Aerodrome Forecast
Issued by NWS Lake Charles, LA

Home | Current Version | Previous Version | Text Only | Print | Product List | Glossary On
Versions: 1 2 3 4 5 6 7 8 9 10 11 12 13 14 15 16 17 18 19 20 21 22 23 24 25 26
738
FTUS44 KLCH 071139
TAFBPT
TAF
KBPT 071139Z 0712/0812 01006KT P6SM OVC011
      TEMPO 0713/0716 OVC007
     FM071600 04008KT P6SM OVC015
     FM080300 02008KT P6SM OVC011
      TEMPO 0805/0809 5SM -DZ BR OVC007=

USA.gov is the U.S. government's official web portal to all federal, state and local government web resources and services.